Item Display Status Inductive CT Sensor

Mooring Depth: 10 m

 

Deployed Sensor

  • Serial Number: 4200
  • NDBC Property Number: 24576
  • Start Date: 1/30/2015 (12:57:28 Z)
  • End Date: 2/26/2016 (16:48:00 Z)
Water Temperature [°C]     6 entries per hour
Showing data from 10/20/2015 (20:00:00 Z) to 10/19/2015 (00:00:01 Z)
Previous Next [ Day | 3-Days | 7-Days ]
First Last
Prev [ Day | 3-Days | 7-Days ] Next
First Last

Start Time:     :
End Time:     :     
Time (in GMT) :00 :50 :40 :30 :20 :10
Previous Next [ Day | 3-Days | 7-Days ]
First Last
Prev [ Day | 3-Days | 7-Days ] Next
First Last


123 => good data
MM => data is determined as missing
-- => data not received/configured
Back to Top Back to Top
10/20/2015 20:00 to 19:10 28.745 28.736 28.728 28.741 28.723 28.731
10/20/2015 19:00 to 18:10 28.723 28.725 28.722 28.721 28.715 28.711
10/20/2015 18:00 to 17:10 28.710 28.706 28.704 28.700 28.700 28.690
10/20/2015 17:00 to 16:10 28.687 28.685 28.677 28.671 28.669 28.675
10/20/2015 16:00 to 15:10 28.674 28.674 28.684 28.681 28.687 28.689
10/20/2015 15:00 to 14:10 28.694 28.700 28.697 28.697 28.695 28.697
10/20/2015 14:00 to 13:10 28.698 28.706 28.704 28.711 28.710 28.720
10/20/2015 13:00 to 12:10 28.724 28.724 28.719 28.716 28.720 28.721
10/20/2015 12:00 to 11:10 28.716 28.707 28.709 28.706 28.711 28.706
10/20/2015 11:00 to 10:10 28.707 28.702 28.705 28.701 28.702 28.704
10/20/2015 10:00 to 9:10 28.710 28.704 28.709 28.720 28.712 28.726
10/20/2015 09:00 to 8:10 28.714 28.731 28.743 28.749 28.697 28.745
10/20/2015 08:00 to 7:10 28.738 28.756 28.758 28.718 28.753 28.727
10/20/2015 07:00 to 6:10 28.698 28.717 28.728 28.738 28.704 28.696
10/20/2015 06:00 to 5:10 28.705 28.709 28.681 28.680 28.691 28.707
10/20/2015 05:00 to 4:10 28.686 28.690 28.687 28.685 28.683 28.684
10/20/2015 04:00 to 3:10 28.685 28.686 28.686 28.684 28.686 28.691
10/20/2015 03:00 to 2:10 28.695 28.701 28.700 28.698 28.698 28.698
10/20/2015 02:00 to 1:10 28.702 28.704 28.701 28.699 28.700 28.695
10/20/2015 01:00 to 0:10 28.697 28.705 28.712 28.717 28.720 28.726
10/20/2015 00:00 to 23:10 28.746 28.772 28.769 28.749 28.725 28.732
10/19/2015 23:00 to 22:10 28.712 28.699 28.691 28.688 28.666 28.665
10/19/2015 22:00 to 21:10 28.652 28.646 28.648 28.652 28.644 28.648
10/19/2015 21:00 to 20:10 28.647 28.640 28.636 28.631 28.636 28.633
10/19/2015 20:00 to 19:10 28.628 28.625 28.619 28.618 28.615 28.614
10/19/2015 19:00 to 18:10 28.622 28.617 28.614 28.615 28.613 28.612
10/19/2015 18:00 to 17:10 28.608 28.604 28.602 28.600 28.596 28.596
10/19/2015 17:00 to 16:10 28.595 28.595 -- 28.594 28.590 28.593
10/19/2015 16:00 to 15:10 28.592 28.597 28.596 28.598 28.596 28.597
10/19/2015 15:00 to 14:10 28.601 28.594 28.597 28.601 28.597 28.606
10/19/2015 14:00 to 13:10 28.602 28.602 28.601 28.606 28.605 28.606
10/19/2015 13:00 to 12:10 28.608 28.613 28.612 28.615 28.617 28.615
10/19/2015 12:00 to 11:10 28.620 28.622 28.619 28.625 28.624 28.627
10/19/2015 11:00 to 10:10 28.631 28.632 28.634 28.636 28.633 28.637
10/19/2015 10:00 to 9:10 28.639 28.636 28.643 28.642 28.642 28.640
10/19/2015 09:00 to 8:10 28.639 28.636 28.633 28.631 28.635 28.636
10/19/2015 08:00 to 7:10 28.637 28.638 28.644 28.646 28.645 28.646
10/19/2015 07:00 to 6:10 28.646 28.648 28.648 28.652 28.655 28.651
10/19/2015 06:00 to 5:10 28.650 28.647 28.646 28.650 28.653 28.654
10/19/2015 05:00 to 4:10 28.668 28.673 28.676 28.676 28.674 28.679
10/19/2015 04:00 to 3:10 28.694 28.700 28.693 28.694 28.686 28.686
10/19/2015 03:00 to 2:10 28.701 28.706 28.714 28.719 28.711 28.734
10/19/2015 02:00 to 1:10 28.722 28.736 28.719 28.742 28.753 28.732
10/19/2015 01:00 to 0:10 28.744 28.761 28.745 28.754 28.760 28.746

 

 

 

Conductivity [S/m]     6 entries per hour
Showing data from 10/20/2015 (20:00:00 Z) to 10/19/2015 (00:00:01 Z)
Previous Next [ Day | 3-Days | 7-Days ]
First Last
Prev [ Day | 3-Days | 7-Days ] Next
First Last

Start Time:     :
End Time:     :     
Time (in GMT) :00 :50 :40 :30 :20 :10
Previous Next [ Day | 3-Days | 7-Days ]
First Last
Prev [ Day | 3-Days | 7-Days ] Next
First Last


123 => good data
MM => data is determined as missing
-- => data not received/configured
Back to Top Back to Top
10/20/2015 20:00 to 19:10 5.68126 5.68110 5.67959 5.67992 5.67984 5.68019
10/20/2015 19:00 to 18:10 5.68033 5.68033 5.67992 5.67951 5.67997 5.67918
10/20/2015 18:00 to 17:10 5.67904 5.67830 5.67822 5.67844 5.67729 5.67753
10/20/2015 17:00 to 16:10 5.67635 5.67630 5.67523 5.67422 5.67422 5.67520
10/20/2015 16:00 to 15:10 5.67550 5.67482 5.67594 5.67635 5.67679 5.67657
10/20/2015 15:00 to 14:10 5.67789 5.67836 5.67786 5.67852 5.67825 5.67852
10/20/2015 14:00 to 13:10 5.67836 5.67860 5.67827 5.67953 5.67975 5.68014
10/20/2015 13:00 to 12:10 5.68110 5.68069 5.68135 5.68080 5.68124 5.68110
10/20/2015 12:00 to 11:10 5.68077 5.68047 5.67967 5.68118 5.67951 5.68063
10/20/2015 11:00 to 10:10 5.68014 5.67915 5.68083 5.67962 5.68005 5.67830
10/20/2015 10:00 to 9:10 5.68025 5.68003 5.68110 5.68154 5.67827 5.68390
10/20/2015 09:00 to 8:10 5.68005 5.68148 5.68557 5.68508 5.67772 5.67877
10/20/2015 08:00 to 7:10 5.68118 5.68648 5.68898 5.68228 5.68942 5.68755
10/20/2015 07:00 to 6:10 5.68055 5.67866 5.68821 5.68755 5.67901 5.68357
10/20/2015 06:00 to 5:10 5.68467 5.68190 5.67934 5.67825 5.67923 5.67986
10/20/2015 05:00 to 4:10 5.67976 5.68003 5.67965 5.67962 5.67948 5.67934
10/20/2015 04:00 to 3:10 5.68025 5.68115 5.68126 5.68014 5.68129 5.68146
10/20/2015 03:00 to 2:10 5.68234 5.68343 5.68398 5.68363 5.68376 5.68382
10/20/2015 02:00 to 1:10 5.68478 5.68497 5.68475 5.68467 5.68486 5.68464
10/20/2015 01:00 to 0:10 5.68464 5.68514 5.68563 5.68709 5.68835 5.68835
10/20/2015 00:00 to 23:10 5.69102 5.69498 5.69773 5.69526 5.69352 5.69473
10/19/2015 23:00 to 22:10 5.69328 5.68901 5.69135 5.68984 5.68745 5.68750
10/19/2015 22:00 to 21:10 5.68561 5.68525 5.68462 5.68602 5.68561 5.68563
10/19/2015 21:00 to 20:10 5.68533 5.68514 5.68440 5.68387 5.68443 5.68404
10/19/2015 20:00 to 19:10 5.68330 5.68305 5.68275 5.68234 5.68187 5.68171
10/19/2015 19:00 to 18:10 5.68294 5.68247 5.68231 5.68264 5.68217 5.68253
10/19/2015 18:00 to 17:10 5.68182 5.68190 5.68115 5.68116 5.68075 5.68091
10/19/2015 17:00 to 16:10 5.68080 5.68058 5.68075 5.68069 5.68001 5.68088
10/19/2015 16:00 to 15:10 5.68003 5.68099 5.68105 5.68113 5.68064 5.68097
10/19/2015 15:00 to 14:10 5.68108 5.68034 5.68066 5.68163 5.68086 5.68184
10/19/2015 14:00 to 13:10 5.68190 5.68135 5.68135 5.68206 5.68204 5.68220
10/19/2015 13:00 to 12:10 5.68234 5.68297 5.68172 5.68322 5.68311 5.68314
10/19/2015 12:00 to 11:10 5.68346 5.68368 5.68352 5.68382 5.68414 5.68390
10/19/2015 11:00 to 10:10 5.68470 5.68500 5.68525 5.68515 5.68492 5.68580
10/19/2015 10:00 to 9:10 5.68580 5.68610 5.68637 5.68616 5.68664 5.68640
10/19/2015 09:00 to 8:10 5.68651 5.68607 5.68591 5.68525 5.68583 5.68596
10/19/2015 08:00 to 7:10 5.68643 5.68574 5.68679 5.68750 5.68739 5.68734
10/19/2015 07:00 to 6:10 5.68706 5.68767 5.68775 5.68808 5.68877 5.68833
10/19/2015 06:00 to 5:10 5.68805 5.68800 5.68797 5.68838 5.68811 5.68835
10/19/2015 05:00 to 4:10 5.68907 5.69116 5.68976 5.69077 5.68984 5.69135
10/19/2015 04:00 to 3:10 5.69190 5.69388 5.69273 5.69352 5.69096 5.69245
10/19/2015 03:00 to 2:10 5.69418 5.69454 5.69556 5.69537 5.69669 5.69732
10/19/2015 02:00 to 1:10 5.69578 5.69735 5.69820 5.69611 5.69911 5.69749
10/19/2015 01:00 to 0:10 5.69696 5.70035 5.69773 5.69931 5.70054 5.69385

 

 

 

Salinity [psu]     6 entries per hour
Showing data from 10/20/2015 (20:00:00 Z) to 10/19/2015 (00:00:01 Z)
Previous Next [ Day | 3-Days | 7-Days ]
First Last
Prev [ Day | 3-Days | 7-Days ] Next
First Last

Start Time:     :
End Time:     :     
Time (in GMT) :00 :50 :40 :30 :20 :10
Previous Next [ Day | 3-Days | 7-Days ]
First Last
Prev [ Day | 3-Days | 7-Days ] Next
First Last


123 => good data
MM => data is determined as missing
-- => data not received/configured
Back to Top Back to Top
10/20/2015 20:00 to 19:10 34.85 34.86 34.86 34.85 34.86 34.86
10/20/2015 19:00 to 18:10 34.86 34.86 34.86 34.86 34.87 34.87
10/20/2015 18:00 to 17:10 34.87 34.86 34.86 34.87 34.86 34.87
10/20/2015 17:00 to 16:10 34.86 34.86 34.86 34.86 34.86 34.86
10/20/2015 16:00 to 15:10 34.87 34.86 34.86 34.87 34.87 34.86
10/20/2015 15:00 to 14:10 34.87 34.87 34.87 34.87 34.87 34.87
10/20/2015 14:00 to 13:10 34.87 34.87 34.86 34.87 34.87 34.87
10/20/2015 13:00 to 12:10 34.87 34.87 34.87 34.87 34.87 34.87
10/20/2015 12:00 to 11:10 34.87 34.88 34.87 34.88 34.87 34.88
10/20/2015 11:00 to 10:10 34.87 34.87 34.88 34.88 34.88 34.86
10/20/2015 10:00 to 9:10 34.87 34.88 34.88 34.88 34.86 34.89
10/20/2015 09:00 to 8:10 34.87 34.87 34.89 34.88 34.86 34.84
10/20/2015 08:00 to 7:10 34.86 34.88 34.90 34.88 34.91 34.91
10/20/2015 07:00 to 6:10 34.88 34.86 34.92 34.90 34.87 34.91
10/20/2015 06:00 to 5:10 34.91 34.89 34.89 34.88 34.88 34.87
10/20/2015 05:00 to 4:10 34.89 34.89 34.89 34.89 34.89 34.89
10/20/2015 04:00 to 3:10 34.89 34.90 34.90 34.89 34.90 34.90
10/20/2015 03:00 to 2:10 34.90 34.90 34.91 34.91 34.91 34.91
10/20/2015 02:00 to 1:10 34.91 34.91 34.91 34.91 34.91 34.91
10/20/2015 01:00 to 0:10 34.91 34.91 34.91 34.92 34.92 34.92
10/20/2015 00:00 to 23:10 34.92 34.93 34.95 34.95 34.95 34.96
10/19/2015 23:00 to 22:10 34.96 34.94 34.96 34.96 34.96 34.96
10/19/2015 22:00 to 21:10 34.95 34.95 34.95 34.96 34.96 34.96
10/19/2015 21:00 to 20:10 34.95 34.96 34.96 34.96 34.96 34.96
10/19/2015 20:00 to 19:10 34.95 34.96 34.96 34.96 34.95 34.95
10/19/2015 19:00 to 18:10 34.96 34.96 34.96 34.96 34.96 34.96
10/19/2015 18:00 to 17:10 34.96 34.96 34.96 34.96 34.96 34.96
10/19/2015 17:00 to 16:10 34.96 34.96 34.96 34.96 34.96 34.96
10/19/2015 16:00 to 15:10 34.96 34.96 34.96 34.96 34.96 34.96
10/19/2015 15:00 to 14:10 34.96 34.96 34.96 34.96 34.96 34.96
10/19/2015 14:00 to 13:10 34.96 34.96 34.96 34.96 34.96 34.96
10/19/2015 13:00 to 12:10 34.96 34.96 34.96 34.96 34.96 34.96
10/19/2015 12:00 to 11:10 34.96 34.96 34.96 34.96 34.96 34.96
10/19/2015 11:00 to 10:10 34.96 34.96 34.96 34.96 34.96 34.97
10/19/2015 10:00 to 9:10 34.96 34.97 34.96 34.96 34.97 34.97
10/19/2015 09:00 to 8:10 34.97 34.97 34.97 34.97 34.97 34.97
10/19/2015 08:00 to 7:10 34.97 34.96 34.97 34.97 34.97 34.97
10/19/2015 07:00 to 6:10 34.97 34.97 34.97 34.97 34.97 34.97
10/19/2015 06:00 to 5:10 34.97 34.97 34.97 34.97 34.97 34.97
10/19/2015 05:00 to 4:10 34.97 34.98 34.96 34.97 34.97 34.97
10/19/2015 04:00 to 3:10 34.97 34.98 34.97 34.98 34.97 34.98
10/19/2015 03:00 to 2:10 34.98 34.97 34.98 34.97 34.99 34.97
10/19/2015 02:00 to 1:10 34.97 34.97 34.99 34.96 34.97 34.98
10/19/2015 01:00 to 0:10 34.96 34.98 34.97 34.97 34.98 34.94